Time;durP1;ratioP1;P1;durP2;ratioP2;P2;SDS_P1;SDS_P2;PMS_P1;PMS_P2;Temp;Humidity;BMP_temperature;BMP_pressure;BME280_temperature;BME280_humidity;BME280_pressure;Samples;Min_cycle;Max_cycle;Signal;HPM_P1;HPM_P2
2021/05/20 00:02:16;;;;;;;;;;;12.70;88.20;;;;;;4336914;32;20373;-76
2021/05/20 00:04:56;;;;;;;;;;;12.70;88.30;;;;;;4349741;32;20477;-75
2021/05/20 00:07:29;;;;;;;;;;;12.60;88.30;;;;;;4349569;32;20040;-75
2021/05/20 00:10:05;;;;;;;;;;;12.70;88.40;;;;;;4348761;32;20052;-76
2021/05/20 00:12:36;;;;;;;;;;;12.70;88.50;;;;;;4349428;32;20016;-76
2021/05/20 00:15:09;;;;;;;;;;;12.70;88.50;;;;;;4349462;32;20012;-75
2021/05/20 00:17:39;;;;;;;;;;;12.70;88.40;;;;;;4337139;32;20039;-76
2021/05/20 00:20:21;;;;;;;;;;;12.60;88.40;;;;;;4338118;32;20005;-76
2021/05/20 00:22:54;;;;;;;;;;;12.70;88.40;;;;;;4336657;32;20004;-76
2021/05/20 00:25:25;;;;;;;;;;;12.60;88.40;;;;;;4349307;32;20382;-76
2021/05/20 00:27:55;;;;;;;;;;;12.70;88.40;;;;;;4349344;32;20369;-76
2021/05/20 00:30:28;;;;;;;;;;;12.70;88.40;;;;;;4336305;32;20035;-76
2021/05/20 00:33:04;;;;;;;;;;;12.60;88.30;;;;;;4348462;32;20334;-76
2021/05/20 00:35:35;;;;;;;;;;;12.60;88.30;;;;;;4348588;32;20036;-76
2021/05/20 00:38:17;;;;;;;;;;;12.60;88.30;;;;;;4336559;32;20013;-76
2021/05/20 00:40:50;;;;;;;;;;;12.60;88.40;;;;;;4336748;32;20005;-76
2021/05/20 00:43:20;;;;;;;;;;;12.60;88.30;;;;;;4336243;32;20008;-76
2021/05/20 00:46:01;;;;;;;;;;;12.50;88.20;;;;;;4336276;32;20068;-76
2021/05/20 00:48:28;;;;;;;;;;;12.50;88.20;;;;;;4336270;32;20011;-76
2021/05/20 00:51:00;;;;;;;;;;;12.50;88.20;;;;;;4336642;32;20043;-76
2021/05/20 00:53:35;;;;;;;;;;;12.50;88.10;;;;;;4348859;32;20017;-76
2021/05/20 00:56:10;;;;;;;;;;;12.60;88.20;;;;;;4348180;32;20398;-76
2021/05/20 00:58:48;;;;;;;;;;;12.50;88.00;;;;;;4361993;32;20397;-76
2021/05/20 01:01:21;;;;;;;;;;;12.50;87.90;;;;;;4336020;32;20001;-76
2021/05/20 01:03:57;;;;;;;;;;;12.50;87.90;;;;;;4335984;32;20029;-76
2021/05/20 01:06:25;;;;;;;;;;;12.50;87.90;;;;;;4335744;32;20421;-76
2021/05/20 01:08:57;;;;;;;;;;;12.50;87.80;;;;;;4348065;32;20382;-76
2021/05/20 01:11:32;;;;;;;;;;;12.50;87.80;;;;;;4336155;32;20090;-76
2021/05/20 01:14:10;;;;;;;;;;;12.50;87.70;;;;;;4349178;32;20009;-76
2021/05/20 01:16:41;;;;;;;;;;;12.50;87.60;;;;;;4335712;32;20370;-76
2021/05/20 01:19:17;;;;;;;;;;;12.40;87.40;;;;;;4336020;32;20001;-76
2021/05/20 01:21:44;;;;;;;;;;;12.40;87.50;;;;;;4335971;32;20015;-76
2021/05/20 01:24:17;;;;;;;;;;;12.40;87.40;;;;;;4336087;32;20024;-76
2021/05/20 01:26:50;;;;;;;;;;;12.40;87.40;;;;;;4348000;32;20016;-76
2021/05/20 01:29:24;;;;;;;;;;;12.30;87.30;;;;;;4335945;32;20019;-76
2021/05/20 01:31:52;;;;;;;;;;;12.30;87.40;;;;;;4347957;32;20068;-76
2021/05/20 01:34:26;;;;;;;;;;;12.30;87.20;;;;;;4361467;32;20448;-76
2021/05/20 01:37:02;;;;;;;;;;;12.30;87.20;;;;;;4348238;33;20043;-76
2021/05/20 01:39:33;;;;;;;;;;;12.30;87.10;;;;;;4336186;33;20027;-76
2021/05/20 01:42:03;;;;;;;;;;;12.30;87.10;;;;;;4348188;33;20035;-76
2021/05/20 01:44:36;;;;;;;;;;;12.30;87.10;;;;;;4347979;33;20015;-76
2021/05/20 01:47:11;;;;;;;;;;;12.30;87.00;;;;;;4335850;33;20009;-76
2021/05/20 01:49:50;;;;;;;;;;;12.20;86.90;;;;;;4336128;33;20009;-76
2021/05/20 01:52:26;;;;;;;;;;;12.20;87.00;;;;;;4335488;33;20031;-76
2021/05/20 01:55:03;;;;;;;;;;;12.20;87.00;;;;;;4337146;32;20008;-76
2021/05/20 01:57:35;;;;;;;;;;;12.20;86.90;;;;;;4350956;32;20004;-76
2021/05/20 02:00:06;;;;;;;;;;;12.20;86.90;;;;;;4338697;32;19997;-76
2021/05/20 02:02:33;;;;;;;;;;;12.20;86.90;;;;;;4350832;32;20035;-76
2021/05/20 02:05:10;;;;;;;;;;;12.20;86.90;;;;;;4338415;32;20058;-76
2021/05/20 02:07:41;;;;;;;;;;;12.10;86.80;;;;;;4351187;32;20087;-76
2021/05/20 02:10:11;;;;;;;;;;;12.10;86.80;;;;;;4338425;32;20394;-76
2021/05/20 02:12:45;;;;;;;;;;;12.10;86.60;;;;;;4350227;32;20034;-76
2021/05/20 02:15:12;;;;;;;;;;;12.10;86.60;;;;;;4350860;32;20008;-76
2021/05/20 02:17:45;;;;;;;;;;;12.00;86.50;;;;;;4338244;32;20402;-76
2021/05/20 02:20:22;;;;;;;;;;;12.00;86.60;;;;;;4338458;32;20016;-76
2021/05/20 02:22:52;;;;;;;;;;;12.00;86.60;;;;;;4338268;32;20048;-76
2021/05/20 02:25:21;;;;;;;;;;;11.90;86.40;;;;;;4350977;32;20012;-76
2021/05/20 02:27:54;;;;;;;;;;;12.00;86.40;;;;;;4337925;32;20440;-76
2021/05/20 02:30:27;;;;;;;;;;;12.00;86.50;;;;;;4350664;32;20028;-76
2021/05/20 02:32:57;;;;;;;;;;;11.90;86.40;;;;;;4338346;32;20357;-76
2021/05/20 02:35:28;;;;;;;;;;;11.90;86.30;;;;;;4350245;32;20011;-76
2021/05/20 02:38:04;;;;;;;;;;;11.90;86.40;;;;;;4338790;32;20024;-76
2021/05/20 02:40:38;;;;;;;;;;;11.90;86.40;;;;;;4351047;32;20013;-76
2021/05/20 02:43:11;;;;;;;;;;;11.90;86.40;;;;;;4337987;32;20009;-76
2021/05/20 02:45:41;;;;;;;;;;;11.90;86.40;;;;;;4338287;32;19997;-76
2021/05/20 02:48:09;;;;;;;;;;;11.80;86.30;;;;;;4338055;32;20004;-77
2021/05/20 02:50:42;;;;;;;;;;;11.90;86.30;;;;;;4349771;32;20001;-76
2021/05/20 02:53:15;;;;;;;;;;;11.80;86.40;;;;;;4337675;32;20005;-76
2021/05/20 02:55:57;;;;;;;;;;;11.80;86.30;;;;;;4351091;32;20086;-76
2021/05/20 02:58:37;;;;;;;;;;;11.80;86.30;;;;;;4337530;32;20053;-76
2021/05/20 03:01:10;;;;;;;;;;;11.80;86.40;;;;;;4350846;32;20047;-76
2021/05/20 03:03:46;;;;;;;;;;;11.80;86.40;;;;;;4350592;32;20051;-76
2021/05/20 03:06:19;;;;;;;;;;;11.70;86.50;;;;;;4337568;32;20452;-76
2021/05/20 03:08:50;;;;;;;;;;;11.70;86.60;;;;;;4337809;32;20015;-76
2021/05/20 03:11:20;;;;;;;;;;;11.60;86.60;;;;;;4349963;32;20046;-76
2021/05/20 03:13:51;;;;;;;;;;;11.60;86.70;;;;;;4338113;32;20020;-76
2021/05/20 03:16:24;;;;;;;;;;;11.70;86.70;;;;;;4349854;32;20420;-76
2021/05/20 03:18:55;;;;;;;;;;;11.70;86.70;;;;;;4337741;32;20353;-76
2021/05/20 03:21:22;;;;;;;;;;;11.70;86.60;;;;;;4337501;32;20001;-76
2021/05/20 03:23:55;;;;;;;;;;;11.60;86.50;;;;;;4337534;32;19997;-76
2021/05/20 03:26:26;;;;;;;;;;;11.60;86.60;;;;;;4337241;32;20005;-76
2021/05/20 03:28:56;;;;;;;;;;;11.60;86.70;;;;;;4349736;32;20019;-76
2021/05/20 03:31:23;;;;;;;;;;;11.60;86.70;;;;;;4349639;32;20345;-76
2021/05/20 03:33:54;;;;;;;;;;;11.60;86.70;;;;;;4337418;32;20008;-76
2021/05/20 03:36:32;;;;;;;;;;;11.60;86.60;;;;;;4337677;32;20346;-76
2021/05/20 03:38:59;;;;;;;;;;;11.60;86.50;;;;;;4349924;32;20013;-76
2021/05/20 03:41:35;;;;;;;;;;;11.60;86.50;;;;;;4338023;32;19997;-76
2021/05/20 03:44:06;;;;;;;;;;;11.60;86.40;;;;;;4337595;32;20012;-76
2021/05/20 03:46:37;;;;;;;;;;;11.60;86.40;;;;;;4337601;32;20033;-76
2021/05/20 03:49:07;;;;;;;;;;;11.60;86.40;;;;;;4336869;32;20027;-76
2021/05/20 03:51:44;;;;;;;;;;;11.50;86.30;;;;;;4349297;32;20034;-76
2021/05/20 03:54:14;;;;;;;;;;;11.50;86.40;;;;;;4337244;32;20013;-76
2021/05/20 03:56:44;;;;;;;;;;;11.50;86.40;;;;;;4337380;32;20060;-76
2021/05/20 03:59:14;;;;;;;;;;;11.50;86.30;;;;;;4337016;32;20449;-76
2021/05/20 04:01:47;;;;;;;;;;;11.50;86.40;;;;;;4336468;32;20080;-76
2021/05/20 04:04:20;;;;;;;;;;;11.50;86.40;;;;;;4337418;32;20008;-76
2021/05/20 04:06:53;;;;;;;;;;;11.50;86.40;;;;;;4336808;32;20403;-76
2021/05/20 04:09:24;;;;;;;;;;;11.50;86.40;;;;;;4336395;32;20019;-76
2021/05/20 04:11:51;;;;;;;;;;;11.50;86.50;;;;;;4336356;32;19997;-76
2021/05/20 04:14:24;;;;;;;;;;;11.50;86.60;;;;;;4349393;32;20044;-76
2021/05/20 04:16:59;;;;;;;;;;;11.40;86.70;;;;;;4336792;32;20005;-76
2021/05/20 04:19:27;;;;;;;;;;;11.40;86.80;;;;;;4349218;32;20051;-76
2021/05/20 04:21:59;;;;;;;;;;;11.40;87.70;;;;;;4348603;32;20008;-76
2021/05/20 04:24:38;;;;;;;;;;;11.40;86.90;;;;;;4348963;32;20409;-77
2021/05/20 04:27:11;;;;;;;;;;;11.40;86.90;;;;;;4336739;32;20458;-77
2021/05/20 04:29:41;;;;;;;;;;;11.40;87.10;;;;;;4348830;32;20013;-76
2021/05/20 04:32:09;;;;;;;;;;;11.30;87.10;;;;;;4348710;32;20108;-76
2021/05/20 04:34:44;;;;;;;;;;;11.30;87.30;;;;;;4337218;32;20036;-77
2021/05/20 04:37:20;;;;;;;;;;;11.30;87.40;;;;;;4348347;32;19996;-76
2021/05/20 04:39:54;;;;;;;;;;;11.30;87.50;;;;;;4347890;32;20021;-77
2021/05/20 04:42:28;;;;;;;;;;;11.30;87.50;;;;;;4335926;32;20382;-77
2021/05/20 04:44:58;;;;;;;;;;;11.30;87.70;;;;;;4348795;32;20019;-77
2021/05/20 04:47:26;;;;;;;;;;;11.20;87.90;;;;;;4348609;32;20442;-77
2021/05/20 04:49:59;;;;;;;;;;;11.20;88.10;;;;;;4361931;32;20021;-78
2021/05/20 04:52:29;;;;;;;;;;;11.20;88.30;;;;;;4336237;32;20370;-77
2021/05/20 04:55:03;;;;;;;;;;;11.20;88.50;;;;;;4336314;32;20084;-77
2021/05/20 04:57:48;;;;;;;;;;;11.20;88.60;;;;;;4360815;32;20017;-77
2021/05/20 05:00:18;;;;;;;;;;;11.20;88.60;;;;;;4348669;32;20026;-77
2021/05/20 05:02:49;;;;;;;;;;;11.20;88.60;;;;;;4348514;32;20074;-77
2021/05/20 05:05:23;;;;;;;;;;;11.30;88.70;;;;;;4348117;32;20397;-76
2021/05/20 05:07:54;;;;;;;;;;;11.30;88.60;;;;;;4348386;32;20001;-78
2021/05/20 05:10:21;;;;;;;;;;;11.30;88.60;;;;;;4336092;32;19997;-77
2021/05/20 05:12:48;;;;;;;;;;;11.30;88.60;;;;;;4348356;32;20019;-77
2021/05/20 05:15:18;;;;;;;;;;;11.20;88.80;;;;;;4335820;32;20035;-77
2021/05/20 05:17:45;;;;;;;;;;;11.20;88.90;;;;;;4335907;32;20017;-77
2021/05/20 05:20:16;;;;;;;;;;;11.20;89.00;;;;;;4336232;32;19996;-77
2021/05/20 05:22:47;;;;;;;;;;;11.20;89.40;;;;;;4336371;32;20468;-77
2021/05/20 05:25:17;;;;;;;;;;;11.10;89.60;;;;;;4335596;32;20011;-77
2021/05/20 05:27:47;;;;;;;;;;;11.10;89.80;;;;;;4335742;32;20005;-77
2021/05/20 05:30:28;;;;;;;;;;;11.10;90.00;;;;;;4335001;32;20012;-77
2021/05/20 05:33:02;;;;;;;;;;;11.10;90.00;;;;;;4335971;32;19997;-77
2021/05/20 05:35:35;;;;;;;;;;;11.10;90.20;;;;;;4347682;32;20001;-77
2021/05/20 05:38:04;;;;;;;;;;;11.00;90.20;;;;;;4347504;32;20021;-77
2021/05/20 05:40:39;;;;;;;;;;;11.00;90.30;;;;;;4335442;33;20446;-77
2021/05/20 05:43:12;;;;;;;;;;;11.00;90.50;;;;;;4336230;33;20001;-77
2021/05/20 05:45:46;;;;;;;;;;;10.90;90.60;;;;;;4335298;33;19997;-77
2021/05/20 05:48:14;;;;;;;;;;;10.90;90.70;;;;;;4336041;33;20015;-76
2021/05/20 05:50:41;;;;;;;;;;;10.80;91.10;;;;;;4334415;33;20036;-77
2021/05/20 05:53:26;;;;;;;;;;;10.80;90.80;;;;;;4335683;33;20052;-76
2021/05/20 05:55:56;;;;;;;;;;;10.80;90.80;;;;;;4348012;33;20008;-76
2021/05/20 05:58:33;;;;;;;;;;;10.80;90.90;;;;;;4336324;33;20089;-76
2021/05/20 06:01:09;;;;;;;;;;;10.80;90.90;;;;;;4361272;33;20072;-76
2021/05/20 06:03:48;;;;;;;;;;;10.80;90.90;;;;;;4335736;33;20049;-76
2021/05/20 06:06:15;;;;;;;;;;;10.80;91.00;;;;;;4335776;33;20027;-76
2021/05/20 06:08:51;;;;;;;;;;;10.80;90.90;;;;;;4347972;33;20064;-76
2021/05/20 06:11:21;;;;;;;;;;;10.90;91.00;;;;;;4335713;33;20117;-76
2021/05/20 06:13:51;;;;;;;;;;;10.90;91.00;;;;;;4347672;33;20047;-76
2021/05/20 06:16:22;;;;;;;;;;;10.90;91.00;;;;;;4335811;33;20011;-76
2021/05/20 06:18:55;;;;;;;;;;;10.80;91.00;;;;;;4335972;33;20020;-76
2021/05/20 06:21:25;;;;;;;;;;;10.80;91.10;;;;;;4347927;33;20059;-77
2021/05/20 06:23:55;;;;;;;;;;;10.80;91.10;;;;;;4348404;33;20068;-76
2021/05/20 06:26:23;;;;;;;;;;;10.80;91.30;;;;;;4335571;33;20366;-76
2021/05/20 06:28:53;;;;;;;;;;;10.80;91.20;;;;;;4335836;33;20041;-76
2021/05/20 06:31:26;;;;;;;;;;;10.80;91.30;;;;;;4347890;33;20128;-76
2021/05/20 06:33:57;;;;;;;;;;;10.80;91.30;;;;;;4347898;33;20072;-76
2021/05/20 06:36:37;;;;;;;;;;;10.80;91.50;;;;;;4348077;33;20043;-76
2021/05/20 06:39:13;;;;;;;;;;;10.80;91.50;;;;;;4347438;33;20406;-76
2021/05/20 06:41:46;;;;;;;;;;;10.70;91.50;;;;;;4337976;32;19997;-76
2021/05/20 06:44:18;;;;;;;;;;;10.70;91.50;;;;;;4349961;32;20016;-76
2021/05/20 06:46:51;;;;;;;;;;;10.70;91.60;;;;;;4349992;32;20028;-76
2021/05/20 06:49:24;;;;;;;;;;;10.70;91.60;;;;;;4350439;32;20023;-76
2021/05/20 06:51:57;;;;;;;;;;;10.70;91.70;;;;;;4350216;32;20035;-75
2021/05/20 06:54:30;;;;;;;;;;;10.70;91.60;;;;;;4350067;32;20028;-76
2021/05/20 06:57:24;;;;;;;;;;;10.70;92.00;;;;;;4350518;32;20043;-76
2021/05/20 07:02:31;;;;;;;;;;;10.60;91.70;;;;;;4363358;32;20028;-76
2021/05/20 07:05:06;;;;;;;;;;;10.70;91.80;;;;;;4350032;32;20017;-76
2021/05/20 07:07:42;;;;;;;;;;;10.70;91.70;;;;;;4350628;32;20502;-76
2021/05/20 07:10:13;;;;;;;;;;;10.70;91.70;;;;;;4350379;32;20043;-76
2021/05/20 07:12:44;;;;;;;;;;;10.80;91.70;;;;;;4337735;32;20103;-76
2021/05/20 07:15:11;;;;;;;;;;;10.80;91.70;;;;;;4337616;32;20378;-76
2021/05/20 07:17:46;;;;;;;;;;;10.80;91.70;;;;;;4338386;32;20015;-76
2021/05/20 07:20:22;;;;;;;;;;;10.90;91.60;;;;;;4349880;32;20016;-76
2021/05/20 07:22:58;;;;;;;;;;;10.80;91.70;;;;;;4350062;32;20394;-76
2021/05/20 07:25:28;;;;;;;;;;;10.80;91.70;;;;;;4337881;32;20399;-76
2021/05/20 07:28:00;;;;;;;;;;;10.80;91.80;;;;;;4349799;32;20023;-76
2021/05/20 07:30:36;;;;;;;;;;;10.80;91.90;;;;;;4349871;32;20080;-76
2021/05/20 07:33:11;;;;;;;;;;;10.80;91.90;;;;;;4337002;32;20019;-76
2021/05/20 07:35:44;;;;;;;;;;;10.80;92.00;;;;;;4349506;32;20060;-76
2021/05/20 07:38:14;;;;;;;;;;;10.70;92.10;;;;;;4349516;32;20065;-76
2021/05/20 07:40:46;;;;;;;;;;;10.80;92.10;;;;;;4337537;32;19997;-76
2021/05/20 07:43:18;;;;;;;;;;;10.70;92.00;;;;;;4349981;32;20023;-76
2021/05/20 07:45:50;;;;;;;;;;;10.80;92.00;;;;;;4349773;32;20358;-77
2021/05/20 07:48:21;;;;;;;;;;;10.80;92.10;;;;;;4337246;32;20005;-76
2021/05/20 07:50:52;;;;;;;;;;;10.80;92.10;;;;;;4350086;32;20005;-76
2021/05/20 07:53:28;;;;;;;;;;;10.80;92.20;;;;;;4336864;32;20056;-76
2021/05/20 07:55:58;;;;;;;;;;;10.80;92.40;;;;;;4337028;32;20001;-76
2021/05/20 07:58:29;;;;;;;;;;;10.70;92.40;;;;;;4362689;32;20024;-76
2021/05/20 08:01:03;;;;;;;;;;;10.70;92.50;;;;;;4337191;32;20044;-76
2021/05/20 08:03:40;;;;;;;;;;;10.70;92.50;;;;;;4349099;32;20114;-76
2021/05/20 08:06:22;;;;;;;;;;;10.70;92.50;;;;;;4349038;32;20011;-76
2021/05/20 08:11:40;;;;;;;;;;;10.80;92.30;;;;;;4362249;32;20015;-76
2021/05/20 08:14:09;;;;;;;;;;;10.80;92.60;;;;;;4336765;32;20020;-76
2021/05/20 08:16:41;;;;;;;;;;;10.80;92.40;;;;;;4362590;32;20013;-76
2021/05/20 08:19:13;;;;;;;;;;;10.80;92.50;;;;;;4362476;32;20057;-76
2021/05/20 08:21:44;;;;;;;;;;;10.90;92.50;;;;;;4336725;32;20068;-76
2021/05/20 08:24:14;;;;;;;;;;;10.90;92.60;;;;;;4349020;32;20341;-76
2021/05/20 08:26:46;;;;;;;;;;;10.90;92.60;;;;;;4336611;32;20465;-76
2021/05/20 08:29:16;;;;;;;;;;;11.00;92.60;;;;;;4349052;32;20013;-76
2021/05/20 08:31:46;;;;;;;;;;;11.00;92.70;;;;;;4336920;32;19997;-76
2021/05/20 08:34:16;;;;;;;;;;;11.00;92.70;;;;;;4336297;32;20016;-76
2021/05/20 08:36:47;;;;;;;;;;;11.00;92.50;;;;;;4349296;32;20023;-76
2021/05/20 08:39:17;;;;;;;;;;;11.10;92.50;;;;;;4348897;32;20068;-76
2021/05/20 08:41:50;;;;;;;;;;;11.20;92.50;;;;;;4362186;32;20037;-76
2021/05/20 08:44:17;;;;;;;;;;;11.20;92.50;;;;;;4348863;32;20008;-76
2021/05/20 08:47:05;;;;;;;;;;;11.20;92.60;;;;;;4362169;32;20016;-76
2021/05/20 08:49:34;;;;;;;;;;;11.20;92.60;;;;;;4336503;32;20447;-76
2021/05/20 08:52:12;;;;;;;;;;;11.20;92.70;;;;;;4362128;32;20446;-75
2021/05/20 08:54:50;;;;;;;;;;;11.30;92.80;;;;;;4348316;32;20064;-76
2021/05/20 08:57:27;;;;;;;;;;;11.30;92.80;;;;;;4348686;32;20069;-76
2021/05/20 08:59:57;;;;;;;;;;;11.40;92.90;;;;;;4361954;32;20014;-76
2021/05/20 09:02:26;;;;;;;;;;;11.40;92.90;;;;;;4335792;32;20013;-76
2021/05/20 09:05:24;;;;;;;;;;;11.50;92.90;;;;;;4348929;32;20039;-76
2021/05/20 09:07:59;;;;;;;;;;;11.50;93.00;;;;;;4361186;32;20068;-76
2021/05/20 09:10:38;;;;;;;;;;;11.60;92.80;;;;;;4348232;32;20015;-76
2021/05/20 09:13:12;;;;;;;;;;;11.60;92.70;;;;;;4361943;32;20004;-76
2021/05/20 09:15:46;;;;;;;;;;;11.70;92.60;;;;;;4335914;32;20065;-76
2021/05/20 09:18:13;;;;;;;;;;;11.70;92.60;;;;;;4335936;32;20049;-76
2021/05/20 09:20:43;;;;;;;;;;;11.70;92.40;;;;;;4361649;32;20011;-76
2021/05/20 09:23:20;;;;;;;;;;;11.80;92.40;;;;;;4361584;32;20031;-76
2021/05/20 09:25:48;;;;;;;;;;;11.80;92.70;;;;;;4336036;32;20001;-76
2021/05/20 09:28:51;;;;;;;;;;;11.80;92.60;;;;;;4336069;32;20000;-76
2021/05/20 09:31:38;;;;;;;;;;;11.90;92.50;;;;;;4346998;32;20489;-76
2021/05/20 09:34:13;;;;;;;;;;;11.90;92.40;;;;;;4348256;32;20001;-76
2021/05/20 09:36:52;;;;;;;;;;;11.90;92.50;;;;;;4335931;32;20458;-76
2021/05/20 09:39:22;;;;;;;;;;;12.00;92.40;;;;;;4361560;32;20009;-76
2021/05/20 09:42:15;;;;;;;;;;;12.00;92.30;;;;;;4360352;32;20457;-76
2021/05/20 09:44:50;;;;;;;;;;;12.00;92.30;;;;;;4348402;33;20474;-76
2021/05/20 09:47:22;;;;;;;;;;;12.00;92.30;;;;;;4361178;33;20008;-76
2021/05/20 09:49:58;;;;;;;;;;;12.10;92.30;;;;;;4336011;33;20000;-76
2021/05/20 09:52:28;;;;;;;;;;;12.10;92.20;;;;;;4348084;33;20020;-76
2021/05/20 09:55:01;;;;;;;;;;;12.10;92.30;;;;;;4348047;33;20064;-76
2021/05/20 09:57:33;;;;;;;;;;;12.20;92.20;;;;;;4335779;33;20036;-76
2021/05/20 10:00:10;;;;;;;;;;;12.20;92.30;;;;;;4335417;33;20001;-77
2021/05/20 10:02:42;;;;;;;;;;;12.20;92.10;;;;;;4335002;33;20043;-75
2021/05/20 10:05:20;;;;;;;;;;;12.30;92.00;;;;;;4361642;33;20463;-76
2021/05/20 10:07:50;;;;;;;;;;;12.30;92.00;;;;;;4335734;33;20025;-76
2021/05/20 10:10:37;;;;;;;;;;;12.30;91.90;;;;;;4336884;33;20036;-77
2021/05/20 10:13:10;;;;;;;;;;;12.30;91.80;;;;;;4335042;33;20068;-76
2021/05/20 10:15:40;;;;;;;;;;;12.40;91.90;;;;;;4348607;32;20015;-76
2021/05/20 10:18:14;;;;;;;;;;;12.40;91.90;;;;;;4350581;32;20477;-76
2021/05/20 10:20:46;;;;;;;;;;;12.50;91.70;;;;;;4338867;32;20040;-76
2021/05/20 10:23:18;;;;;;;;;;;12.50;91.80;;;;;;4350666;32;20027;-75
2021/05/20 10:25:58;;;;;;;;;;;12.60;91.60;;;;;;4364137;32;20347;-75
2021/05/20 10:28:28;;;;;;;;;;;12.60;91.50;;;;;;4350619;32;20410;-75
2021/05/20 10:31:09;;;;;;;;;;;12.60;91.50;;;;;;4350534;32;20005;-75
2021/05/20 10:33:43;;;;;;;;;;;12.70;91.50;;;;;;4363940;32;20023;-75
2021/05/20 10:36:20;;;;;;;;;;;12.70;91.40;;;;;;4350451;32;20043;-75
2021/05/20 10:38:52;;;;;;;;;;;12.80;91.30;;;;;;4363888;32;20057;-75
2021/05/20 10:41:27;;;;;;;;;;;12.80;91.10;;;;;;4350811;32;20432;-74
2021/05/20 10:44:08;;;;;;;;;;;12.90;91.00;;;;;;4363890;32;20057;-74
2021/05/20 10:46:54;;;;;;;;;;;13.00;90.80;;;;;;4350508;32;20012;-75
2021/05/20 10:49:42;;;;;;;;;;;13.10;90.60;;;;;;4337561;32;20015;-74
2021/05/20 10:52:28;;;;;;;;;;;13.10;90.40;;;;;;4349983;32;20069;-74
2021/05/20 10:55:03;;;;;;;;;;;13.20;90.30;;;;;;4350152;32;19993;-74
2021/05/20 10:57:49;;;;;;;;;;;13.20;90.50;;;;;;4350236;32;20083;-74
2021/05/20 11:00:37;;;;;;;;;;;13.30;90.40;;;;;;4338041;32;20001;-74
2021/05/20 11:03:04;;;;;;;;;;;13.30;90.40;;;;;;4337208;32;20426;-74
2021/05/20 11:05:44;;;;;;;;;;;13.40;90.10;;;;;;4349983;32;20019;-74
2021/05/20 11:08:28;;;;;;;;;;;13.40;90.10;;;;;;4349646;32;20061;-74
2021/05/20 11:11:02;;;;;;;;;;;13.40;90.10;;;;;;4350048;32;20009;-74
2021/05/20 11:13:45;;;;;;;;;;;13.40;90.00;;;;;;4363205;32;20000;-74
2021/05/20 11:16:38;;;;;;;;;;;13.40;89.70;;;;;;4363242;32;20015;-74
2021/05/20 11:19:39;;;;;;;;;;;13.40;89.60;;;;;;4360744;32;20011;-74
2021/05/20 11:22:07;;;;;;;;;;;13.50;89.60;;;;;;4363068;32;20005;-74
2021/05/20 11:24:41;;;;;;;;;;;13.50;89.90;;;;;;4349527;32;20383;-74
2021/05/20 11:27:15;;;;;;;;;;;13.50;89.70;;;;;;4363058;32;20358;-74
2021/05/20 11:29:44;;;;;;;;;;;13.50;89.10;;;;;;4349428;32;20008;-74
2021/05/20 11:32:29;;;;;;;;;;;13.50;89.50;;;;;;4363046;32;20025;-74
2021/05/20 11:37:50;;;;;;;;;;;13.60;88.30;;;;;;4349495;32;20485;-75
2021/05/20 11:40:33;;;;;;;;;;;13.60;88.80;;;;;;4349863;32;20013;-74
2021/05/20 11:43:01;;;;;;;;;;;13.70;89.10;;;;;;4349719;32;20016;-75
2021/05/20 11:45:33;;;;;;;;;;;13.70;88.80;;;;;;4362599;32;20019;-74
2021/05/20 11:48:03;;;;;;;;;;;13.70;88.50;;;;;;4349494;32;20016;-74
2021/05/20 11:50:32;;;;;;;;;;;13.70;88.50;;;;;;4349175;32;20008;-74
2021/05/20 11:53:12;;;;;;;;;;;13.70;88.00;;;;;;4349555;32;20032;-75
2021/05/20 11:55:41;;;;;;;;;;;13.80;88.40;;;;;;4337187;32;19997;-74
2021/05/20 11:58:08;;;;;;;;;;;13.80;88.30;;;;;;4362643;32;20076;-75
2021/05/20 12:00:35;;;;;;;;;;;13.80;88.20;;;;;;4362392;32;20019;-74
2021/05/20 12:03:03;;;;;;;;;;;13.80;88.40;;;;;;4348824;32;20042;-74
2021/05/20 12:05:31;;;;;;;;;;;13.90;88.40;;;;;;4362481;32;20018;-75
2021/05/20 12:08:19;;;;;;;;;;;13.90;88.60;;;;;;4362711;32;20009;-75
2021/05/20 12:10:51;;;;;;;;;;;13.90;88.20;;;;;;4349268;32;20015;-74
2021/05/20 12:13:19;;;;;;;;;;;13.90;87.90;;;;;;4362653;32;20001;-75
2021/05/20 12:15:50;;;;;;;;;;;14.00;88.20;;;;;;4349483;32;20065;-74
2021/05/20 12:18:21;;;;;;;;;;;14.00;87.90;;;;;;4362583;32;20018;-74
2021/05/20 12:20:53;;;;;;;;;;;14.00;87.60;;;;;;4362367;32;20369;-75
2021/05/20 12:23:23;;;;;;;;;;;14.10;88.00;;;;;;4349367;32;20005;-74
2021/05/20 12:25:51;;;;;;;;;;;14.10;87.80;;;;;;4348802;32;19994;-75
2021/05/20 12:28:18;;;;;;;;;;;14.10;87.30;;;;;;4348571;32;20045;-74
2021/05/20 12:30:45;;;;;;;;;;;14.10;86.30;;;;;;4362173;32;20307;-74
2021/05/20 12:33:13;;;;;;;;;;;14.10;85.80;;;;;;4348914;32;20099;-75
2021/05/20 12:35:44;;;;;;;;;;;14.10;85.00;;;;;;4362339;32;20432;-74
2021/05/20 12:38:14;;;;;;;;;;;14.10;86.00;;;;;;4348200;32;20447;-74
2021/05/20 12:40:44;;;;;;;;;;;14.20;85.70;;;;;;4348713;32;20016;-74
2021/05/20 12:43:21;;;;;;;;;;;14.20;85.60;;;;;;4348532;32;20011;-74
2021/05/20 12:45:55;;;;;;;;;;;14.20;86.40;;;;;;4362042;32;20023;-74
2021/05/20 12:48:22;;;;;;;;;;;14.30;86.60;;;;;;4361839;32;20059;-74
2021/05/20 12:50:50;;;;;;;;;;;14.30;86.30;;;;;;4361752;32;20009;-75
2021/05/20 12:53:28;;;;;;;;;;;14.30;86.20;;;;;;4362051;32;20012;-74
2021/05/20 12:55:55;;;;;;;;;;;14.30;85.70;;;;;;4348630;32;20073;-74
2021/05/20 12:58:25;;;;;;;;;;;14.30;85.60;;;;;;4348435;32;20068;-74
2021/05/20 13:00:57;;;;;;;;;;;14.30;86.00;;;;;;4361898;32;20056;-75
2021/05/20 13:03:26;;;;;;;;;;;14.30;85.70;;;;;;4361252;32;20016;-75
2021/05/20 13:05:56;;;;;;;;;;;14.30;84.90;;;;;;4347986;32;20011;-74
2021/05/20 13:08:34;;;;;;;;;;;14.30;85.00;;;;;;4361911;32;20406;-74
2021/05/20 13:11:37;;;;;;;;;;;14.30;83.70;;;;;;4348313;32;20056;-74
2021/05/20 13:14:41;;;;;;;;;;;14.30;83.60;;;;;;4361388;32;20072;-74
2021/05/20 13:17:34;;;;;;;;;;;14.30;84.50;;;;;;4361577;32;20319;-74
2021/05/20 13:23:10;;;;;;;;;;;14.30;82.80;;;;;;4361299;32;20020;-74
2021/05/20 13:26:00;;;;;;;;;;;14.30;82.20;;;;;;4361870;32;20017;-74
2021/05/20 13:28:30;;;;;;;;;;;14.30;82.90;;;;;;4348295;32;20061;-74
2021/05/20 13:31:00;;;;;;;;;;;14.30;82.00;;;;;;4361518;32;20099;-74
2021/05/20 13:35:59;;;;;;;;;;;14.30;82.50;;;;;;4361471;32;20390;-74
2021/05/20 13:38:32;;;;;;;;;;;14.30;82.90;;;;;;4361622;32;20451;-74
2021/05/20 13:40:59;;;;;;;;;;;14.30;83.00;;;;;;4348324;32;20012;-74
2021/05/20 13:43:31;;;;;;;;;;;14.40;82.60;;;;;;4361439;32;20017;-74
2021/05/20 13:46:01;;;;;;;;;;;14.40;81.90;;;;;;4348204;33;20020;-74
2021/05/20 13:48:31;;;;;;;;;;;14.30;82.00;;;;;;4361396;33;20048;-74
2021/05/20 13:51:02;;;;;;;;;;;14.30;82.00;;;;;;4349339;32;20009;-74
2021/05/20 13:53:30;;;;;;;;;;;14.30;80.80;;;;;;4364232;32;20366;-74
2021/05/20 13:56:00;;;;;;;;;;;14.30;80.70;;;;;;4350749;32;20375;-75
2021/05/20 13:58:35;;;;;;;;;;;14.30;81.90;;;;;;4364497;32;20026;-74
2021/05/20 14:01:10;;;;;;;;;;;14.30;81.60;;;;;;4350971;32;20016;-75
2021/05/20 14:03:50;;;;;;;;;;;14.40;81.80;;;;;;4338306;32;20451;-75
2021/05/20 14:06:19;;;;;;;;;;;14.40;81.90;;;;;;4364429;32;20023;-75
2021/05/20 14:08:50;;;;;;;;;;;14.40;81.10;;;;;;4350875;32;20360;-75
2021/05/20 14:11:22;;;;;;;;;;;14.40;81.60;;;;;;4350897;32;20048;-74
2021/05/20 14:13:57;;;;;;;;;;;14.40;81.20;;;;;;4338614;32;20098;-75
2021/05/20 14:16:24;;;;;;;;;;;14.40;81.00;;;;;;4364105;32;20481;-75
2021/05/20 14:19:03;;;;;;;;;;;14.40;80.00;;;;;;4363967;32;20053;-75
2021/05/20 14:21:53;;;;;;;;;;;14.40;79.50;;;;;;4364165;32;20005;-75
2021/05/20 14:24:26;;;;;;;;;;;14.40;78.90;;;;;;4350801;32;20019;-75
2021/05/20 14:27:03;;;;;;;;;;;14.30;77.10;;;;;;4364055;32;20015;-75
2021/05/20 14:29:32;;;;;;;;;;;14.30;78.60;;;;;;4363734;32;20016;-75
2021/05/20 14:32:05;;;;;;;;;;;14.30;78.70;;;;;;4350622;32;20061;-75
2021/05/20 14:34:37;;;;;;;;;;;14.30;77.70;;;;;;4363959;32;20023;-74
2021/05/20 14:37:11;;;;;;;;;;;14.30;78.20;;;;;;4364038;32;20403;-74
2021/05/20 14:39:47;;;;;;;;;;;14.30;77.10;;;;;;4338193;32;20414;-75
2021/05/20 14:42:17;;;;;;;;;;;14.30;78.40;;;;;;4350514;32;20052;-75
2021/05/20 14:44:48;;;;;;;;;;;14.30;79.30;;;;;;4350341;32;20406;-76
2021/05/20 14:47:17;;;;;;;;;;;14.30;79.30;;;;;;4363765;32;20112;-75
2021/05/20 14:49:53;;;;;;;;;;;14.40;79.50;;;;;;4350487;32;20076;-76
2021/05/20 14:52:40;;;;;;;;;;;14.40;79.10;;;;;;4363824;32;20076;-76
2021/05/20 15:08:33;;;;;;;;;;;14.40;78.50;;;;;;4363179;32;20023;-75
2021/05/20 15:16:21;;;;;;;;;;;14.40;78.50;;;;;;4363450;32;20027;-75
2021/05/20 15:18:54;;;;;;;;;;;14.40;78.10;;;;;;4350405;32;20064;-75
2021/05/20 15:21:30;;;;;;;;;;;14.40;77.70;;;;;;4350512;32;20035;-75
2021/05/20 15:24:04;;;;;;;;;;;14.40;77.40;;;;;;4363223;32;20013;-75
2021/05/20 15:26:40;;;;;;;;;;;14.40;77.20;;;;;;4363177;32;20060;-75